createdAt,value
2022-08-03T00:00:31.705Z,20.60
2022-08-03T00:05:39.877Z,20.60
2022-08-03T00:08:11.513Z,20.60
2022-08-03T00:10:42.880Z,20.50
2022-08-03T00:15:51.191Z,20.70
2022-08-03T00:18:22.530Z,20.70
2022-08-03T00:23:50.923Z,20.50
2022-08-03T00:26:02.243Z,20.50
2022-08-03T00:28:32.903Z,20.30
2022-08-03T00:31:03.556Z,20.30
2022-08-03T00:33:58.368Z,20.30
2022-08-03T00:36:07.917Z,20.30
2022-08-03T00:38:38.534Z,20.20
2022-08-03T00:41:09.156Z,20.20
2022-08-03T00:43:39.729Z,20.10
2022-08-03T00:46:10.462Z,19.90
2022-08-03T00:48:42.168Z,19.90
2022-08-03T00:51:12.956Z,20.00
2022-08-03T00:53:44.319Z,20.10
2022-08-03T00:56:16.775Z,20.20
2022-08-03T00:58:48.293Z,20.20
2022-08-03T01:01:19.306Z,20.20
2022-08-03T01:03:49.927Z,20.10
2022-08-03T01:06:22.924Z,20.20
2022-08-03T01:08:57.203Z,20.10
2022-08-03T01:11:30.994Z,20.10
2022-08-03T01:14:18.562Z,20.00
2022-08-03T01:16:42.488Z,20.10
2022-08-03T01:19:22.203Z,20.20
2022-08-03T01:21:56.358Z,20.00
2022-08-03T01:24:34.739Z,19.80
2022-08-03T01:27:10.931Z,19.70
2022-08-03T01:30:03.770Z,19.80
2022-08-03T01:32:58.964Z,19.70
2022-08-03T01:35:21.888Z,19.40
2022-08-03T01:37:56.683Z,19.30
2022-08-03T01:40:29.807Z,19.20
2022-08-03T01:43:03.431Z,19.20
2022-08-03T01:45:35.529Z,19.00
2022-08-03T01:48:08.461Z,18.90
2022-08-03T01:50:39.630Z,19.00
2022-08-03T01:53:11.946Z,19.10
2022-08-03T01:55:44.071Z,19.20
2022-08-03T01:58:17.105Z,19.20
2022-08-03T02:00:49.234Z,19.20
2022-08-03T02:03:21.852Z,19.10
2022-08-03T02:06:11.508Z,19.10
2022-08-03T02:08:28.496Z,19.10
2022-08-03T02:11:00.598Z,19.20
2022-08-03T02:13:32.056Z,19.20
2022-08-03T02:16:04.368Z,19.10
2022-08-03T02:18:38.175Z,18.90
2022-08-03T02:21:11.975Z,18.70
2022-08-03T02:23:44.606Z,18.50
2022-08-03T02:26:18.554Z,18.50
2022-08-03T02:28:52.066Z,18.70
2022-08-03T02:31:25.925Z,18.80
2022-08-03T02:33:59.177Z,18.70
2022-08-03T02:36:32.861Z,18.60
2022-08-03T02:39:05.502Z,18.60
2022-08-03T02:41:39.493Z,18.60
2022-08-03T02:44:13.481Z,18.50
2022-08-03T02:46:48.195Z,18.60
2022-08-03T02:49:41.397Z,18.80
2022-08-03T02:51:55.740Z,18.70
2022-08-03T02:54:28.141Z,18.50
2022-08-03T02:57:02.885Z,18.30
2022-08-03T02:59:35.033Z,18.20
2022-08-03T03:02:06.121Z,18.00
2022-08-03T03:04:38.288Z,18.10
2022-08-03T03:07:12.629Z,18.30
2022-08-03T03:09:44.749Z,18.50
2022-08-03T03:12:17.319Z,18.30
2022-08-03T03:14:48.231Z,18.20
2022-08-03T03:17:20.462Z,18.30
2022-08-03T03:19:52.414Z,18.30
2022-08-03T03:22:24.890Z,18.40
2022-08-03T03:24:56.286Z,18.40
2022-08-03T03:27:27.668Z,18.30
2022-08-03T03:30:00.524Z,18.30
2022-08-03T03:32:31.695Z,18.20
2022-08-03T03:35:02.579Z,18.30
2022-08-03T03:37:33.470Z,18.20
2022-08-03T03:40:04.923Z,18.10
2022-08-03T03:42:35.673Z,18.10
2022-08-03T03:45:08.663Z,18.10
2022-08-03T03:47:39.810Z,17.90
2022-08-03T03:50:12.754Z,17.80
2022-08-03T03:52:43.352Z,17.80
2022-08-03T03:55:17.944Z,17.70
2022-08-03T03:57:48.706Z,17.70
2022-08-03T04:00:21.240Z,17.60
2022-08-03T04:02:51.820Z,17.60
2022-08-03T04:05:44.235Z,17.70
2022-08-03T04:08:33.341Z,18.00
2022-08-03T04:11:09.868Z,18.20
2022-08-03T04:13:42.875Z,18.40
2022-08-03T04:16:16.827Z,18.50
2022-08-03T04:18:50.546Z,18.30
2022-08-03T04:21:23.611Z,17.90
2022-08-03T04:23:57.436Z,17.90
2022-08-03T04:26:31.315Z,17.90
2022-08-03T04:29:04.057Z,17.90
2022-08-03T04:31:36.628Z,18.10
2022-08-03T04:34:07.458Z,18.10
2022-08-03T04:36:41.320Z,18.00
2022-08-03T04:39:14.964Z,17.90
2022-08-03T04:42:02.268Z,17.90
2022-08-03T04:44:21.065Z,17.80
2022-08-03T04:46:54.340Z,17.80
2022-08-03T04:49:26.437Z,17.80
2022-08-03T04:51:57.446Z,17.70
2022-08-03T04:54:28.080Z,17.60
2022-08-03T04:56:58.882Z,17.70
2022-08-03T04:59:29.441Z,17.70
2022-08-03T05:02:00.127Z,17.70
2022-08-03T05:04:31.218Z,17.80
2022-08-03T05:07:11.651Z,17.80
2022-08-03T05:09:52.473Z,17.90
2022-08-03T05:12:08.957Z,17.80
2022-08-03T05:14:40.366Z,17.70
2022-08-03T05:17:11.506Z,17.70
2022-08-03T05:19:42.068Z,17.80
2022-08-03T05:22:12.701Z,17.80
2022-08-03T05:24:43.319Z,17.90
2022-08-03T05:27:16.389Z,18.00
2022-08-03T05:29:47.058Z,18.00
2022-08-03T05:32:18.723Z,18.10
2022-08-03T05:34:49.597Z,18.30
2022-08-03T05:37:20.211Z,18.50
2022-08-03T05:39:50.839Z,18.70
2022-08-03T05:42:21.426Z,19.00
2022-08-03T05:44:52.301Z,19.20
2022-08-03T05:47:23.133Z,19.40
2022-08-03T05:49:53.761Z,19.60
2022-08-03T05:52:24.701Z,19.90
2022-08-03T05:54:57.759Z,20.00
2022-08-03T05:57:29.257Z,20.20
2022-08-03T05:59:59.906Z,20.40
2022-08-03T06:02:30.671Z,20.50
2022-08-03T06:05:01.322Z,20.90
2022-08-03T06:07:32.127Z,21.30
2022-08-03T06:10:35.970Z,21.50
2022-08-03T06:12:36.438Z,21.50
2022-08-03T06:15:11.278Z,21.80
2022-08-03T06:17:48.597Z,21.80
2022-08-03T06:20:20.907Z,21.80
2022-08-03T06:23:00.377Z,22.00
2022-08-03T06:25:26.190Z,22.20
2022-08-03T06:27:57.103Z,22.50
2022-08-03T06:30:28.245Z,22.70
2022-08-03T06:32:58.892Z,22.90
2022-08-03T06:35:29.693Z,23.10
2022-08-03T06:38:01.562Z,23.10
2022-08-03T06:40:33.119Z,23.20
2022-08-03T06:45:42.514Z,23.30
2022-08-03T06:48:14.470Z,23.50
2022-08-03T06:50:45.365Z,23.60
2022-08-03T06:53:18.212Z,23.60
2022-08-03T06:55:53.849Z,23.60
2022-08-03T06:58:20.947Z,23.60
2022-08-03T07:00:51.976Z,23.80
2022-08-03T07:03:22.694Z,23.80
2022-08-03T07:05:53.377Z,23.80
2022-08-03T07:08:33.725Z,23.80
2022-08-03T07:10:57.308Z,24.00
2022-08-03T07:13:28.887Z,24.20
2022-08-03T07:15:59.756Z,24.30
2022-08-03T07:18:32.490Z,24.40
2022-08-03T07:21:03.577Z,24.60
2022-08-03T07:23:34.845Z,24.60
2022-08-03T07:26:06.089Z,24.70
2022-08-03T07:28:38.622Z,24.90
2022-08-03T07:31:09.839Z,25.00
2022-08-03T07:33:41.244Z,25.20
2022-08-03T07:36:12.201Z,25.50
2022-08-03T07:38:43.527Z,25.70
2022-08-03T07:41:14.335Z,25.50
2022-08-03T07:43:45.316Z,25.70
2022-08-03T07:46:17.788Z,25.70
2022-08-03T07:48:48.483Z,25.60
2022-08-03T07:51:19.139Z,25.90
2022-08-03T07:53:49.856Z,25.90
2022-08-03T07:56:23.020Z,25.80
2022-08-03T07:58:54.188Z,25.80
2022-08-03T08:01:25.413Z,26.00
2022-08-03T08:03:56.582Z,26.20
2022-08-03T08:06:27.325Z,25.90
2022-08-03T08:09:00.185Z,26.20
2022-08-03T08:11:30.953Z,26.20
2022-08-03T08:14:03.042Z,26.20
2022-08-03T08:16:34.137Z,26.60
2022-08-03T08:19:04.771Z,26.80
2022-08-03T08:21:53.863Z,26.90
2022-08-03T08:24:13.319Z,26.60
2022-08-03T08:26:43.482Z,26.70
2022-08-03T08:29:14.291Z,26.90
2022-08-03T08:31:45.692Z,27.10
2022-08-03T08:34:16.495Z,27.30
2022-08-03T08:36:47.256Z,27.20
2022-08-03T08:39:19.177Z,27.30
2022-08-03T08:41:53.608Z,27.20
2022-08-03T08:44:24.257Z,27.40
2022-08-03T08:46:57.764Z,27.20
2022-08-03T08:49:30.814Z,27.50
2022-08-03T08:52:02.726Z,27.60
2022-08-03T08:54:34.719Z,27.50
2022-08-03T08:59:47.725Z,27.60
2022-08-03T09:02:19.772Z,27.50
2022-08-03T09:04:56.569Z,27.70
2022-08-03T09:07:31.472Z,27.80
2022-08-03T09:10:12.079Z,28.10
2022-08-03T09:12:42.698Z,28.20
2022-08-03T09:15:29.304Z,28.30
2022-08-03T09:18:04.433Z,28.80
2022-08-03T09:20:37.062Z,29.00
2022-08-03T09:23:44.590Z,28.90
2022-08-03T09:26:02.234Z,29.20
2022-08-03T09:28:59.782Z,29.80
2022-08-03T09:31:10.609Z,29.70
2022-08-03T09:33:49.622Z,29.90
2022-08-03T09:36:40.664Z,30.20
2022-08-03T09:39:13.709Z,30.20
2022-08-03T09:41:46.120Z,30.50
2022-08-03T09:44:25.754Z,30.50
2022-08-03T09:46:54.642Z,30.40
2022-08-03T09:49:25.771Z,30.20
2022-08-03T09:52:32.073Z,30.30
2022-08-03T09:54:30.043Z,30.70
2022-08-03T09:57:01.318Z,30.90
2022-08-03T09:59:33.709Z,30.80
2022-08-03T10:02:04.363Z,31.00
2022-08-03T10:04:35.002Z,30.80
2022-08-03T10:07:09.489Z,31.30
2022-08-03T10:09:42.468Z,31.60
2022-08-03T10:12:15.320Z,31.40
2022-08-03T10:14:48.396Z,31.70
2022-08-03T10:17:19.390Z,31.70
2022-08-03T10:19:51.059Z,32.10
2022-08-03T10:22:24.242Z,32.30
2022-08-03T10:24:59.818Z,32.20
2022-08-03T10:27:33.825Z,32.00
2022-08-03T10:30:07.257Z,32.20
2022-08-03T10:32:42.035Z,32.70
2022-08-03T10:35:20.899Z,32.70
2022-08-03T10:37:56.929Z,32.60
2022-08-03T10:40:47.690Z,32.60
2022-08-03T10:42:59.579Z,32.70
2022-08-03T10:45:31.967Z,33.10
2022-08-03T10:50:43.532Z,32.80
2022-08-03T10:53:14.678Z,33.10
2022-08-03T10:56:05.746Z,33.50
2022-08-03T10:58:57.916Z,33.50
2022-08-03T11:01:59.956Z,34.10
2022-08-03T11:04:25.639Z,34.10
2022-08-03T11:07:22.658Z,33.70
2022-08-03T11:09:54.887Z,34.00
2022-08-03T11:12:30.725Z,34.20
2022-08-03T11:15:01.902Z,34.40
2022-08-03T11:17:33.295Z,34.70
2022-08-03T11:20:05.619Z,34.70
2022-08-03T11:22:53.859Z,34.90
2022-08-03T11:25:53.758Z,34.80
2022-08-03T11:28:28.355Z,34.70
2022-08-03T11:31:00.848Z,34.80
2022-08-03T11:36:11.080Z,35.00
2022-08-03T11:39:06.575Z,34.80
2022-08-03T11:41:44.846Z,35.30
2022-08-03T11:44:10.232Z,35.70
2022-08-03T11:46:41.759Z,35.60
2022-08-03T11:51:50.241Z,36.10
2022-08-03T11:54:23.053Z,36.20
2022-08-03T11:56:53.842Z,36.10
2022-08-03T11:59:35.070Z,36.00
2022-08-03T12:02:10.364Z,35.90
2022-08-03T12:04:53.286Z,35.80
2022-08-03T12:08:03.596Z,36.10
2022-08-03T12:12:58.070Z,36.40
2022-08-03T12:15:31.201Z,36.00
2022-08-03T12:18:02.299Z,35.70
2022-08-03T12:20:35.018Z,36.00
2022-08-03T12:23:08.000Z,35.60
2022-08-03T12:25:41.174Z,35.40
2022-08-03T12:30:55.271Z,35.90
2022-08-03T12:36:09.144Z,36.80
2022-08-03T12:38:41.493Z,36.50
2022-08-03T12:41:15.392Z,37.10
2022-08-03T12:46:35.292Z,37.60
2022-08-03T12:49:14.795Z,37.70
2022-08-03T12:52:06.822Z,37.50
2022-08-03T12:54:35.187Z,37.30
2022-08-03T12:57:07.784Z,37.60
2022-08-03T12:59:41.502Z,38.00
2022-08-03T13:02:19.989Z,38.80
2022-08-03T13:04:53.558Z,38.90
2022-08-03T13:07:24.793Z,38.80
2022-08-03T13:12:35.869Z,38.30
2022-08-03T13:20:22.532Z,38.50
2022-08-03T13:22:59.177Z,39.00
2022-08-03T13:28:06.484Z,37.90
2022-08-03T13:30:37.400Z,38.50
2022-08-03T13:33:07.988Z,38.80
2022-08-03T13:35:38.588Z,39.10
2022-08-03T13:40:46.606Z,39.30
2022-08-03T13:43:18.836Z,39.70
2022-08-03T13:45:53.566Z,39.10
2022-08-03T13:48:35.786Z,38.80
2022-08-03T13:53:33.381Z,39.50
2022-08-03T13:56:03.925Z,39.80
2022-08-03T13:58:34.906Z,39.50
2022-08-03T14:01:05.498Z,39.70
2022-08-03T14:03:36.168Z,40.00
2022-08-03T14:06:06.931Z,39.00
2022-08-03T14:08:37.643Z,39.10
2022-08-03T14:11:08.932Z,39.70
2022-08-03T14:13:39.715Z,39.90
2022-08-03T14:16:10.344Z,39.90
2022-08-03T14:18:43.114Z,39.70
2022-08-03T14:21:15.123Z,39.90
2022-08-03T14:23:45.696Z,40.30
2022-08-03T14:26:17.888Z,40.50
2022-08-03T14:28:48.876Z,40.40
2022-08-03T14:32:11.291Z,40.00
2022-08-03T14:33:51.671Z,40.00
2022-08-03T14:36:22.518Z,40.20
2022-08-03T14:38:53.271Z,40.00
2022-08-03T14:41:24.445Z,40.70
2022-08-03T14:44:01.234Z,40.90
2022-08-03T14:46:29.263Z,40.70
2022-08-03T14:50:34.122Z,40.10
2022-08-03T14:51:32.255Z,40.70
2022-08-03T14:54:02.926Z,41.10
2022-08-03T14:56:33.558Z,40.60
2022-08-03T14:59:04.125Z,40.90
2022-08-03T15:02:02.272Z,40.80
2022-08-03T15:04:07.251Z,40.80
2022-08-03T15:06:38.399Z,41.00
2022-08-03T15:09:23.659Z,41.30
2022-08-03T15:11:41.243Z,41.40
2022-08-03T15:14:13.340Z,41.30
2022-08-03T15:16:44.302Z,41.50
2022-08-03T15:20:00.381Z,41.70
2022-08-03T15:21:47.770Z,41.90
2022-08-03T15:24:18.511Z,41.90
2022-08-03T15:26:49.176Z,41.50
2022-08-03T15:30:05.231Z,41.50
2022-08-03T15:31:52.131Z,41.50
2022-08-03T15:34:22.836Z,41.50
2022-08-03T15:36:53.462Z,41.40
2022-08-03T15:39:24.205Z,41.20
2022-08-03T15:41:55.103Z,40.80
2022-08-03T15:44:27.025Z,40.20
2022-08-03T15:46:57.614Z,40.80
2022-08-03T15:49:28.288Z,40.80
2022-08-03T15:51:58.904Z,40.50
2022-08-03T15:54:29.662Z,40.40
2022-08-03T15:57:00.260Z,41.00
2022-08-03T15:59:30.871Z,41.00
2022-08-03T16:02:01.501Z,41.00
2022-08-03T16:04:32.195Z,40.40
2022-08-03T16:07:02.837Z,40.10
2022-08-03T16:09:43.291Z,40.00
2022-08-03T16:12:06.630Z,40.40
2022-08-03T16:14:48.411Z,40.50
2022-08-03T16:17:11.284Z,40.20
2022-08-03T16:19:42.034Z,39.60
2022-08-03T16:22:12.647Z,39.60
2022-08-03T16:24:44.995Z,39.40
2022-08-03T16:27:37.173Z,39.20
2022-08-03T16:29:48.012Z,38.70
2022-08-03T16:32:18.803Z,37.60
2022-08-03T16:34:49.356Z,37.00
2022-08-03T16:37:38.186Z,36.70
2022-08-03T16:39:52.427Z,36.20
2022-08-03T16:42:23.057Z,35.80
2022-08-03T16:44:53.642Z,35.60
2022-08-03T16:47:24.381Z,35.30
2022-08-03T16:49:56.520Z,35.00
2022-08-03T16:52:27.693Z,34.70
2022-08-03T16:54:58.365Z,34.50
2022-08-03T16:57:31.886Z,34.30
2022-08-03T17:00:01.785Z,34.20
2022-08-03T17:02:33.547Z,34.10
2022-08-03T17:05:06.423Z,33.90
2022-08-03T17:07:40.822Z,33.80
2022-08-03T17:10:13.238Z,33.70
2022-08-03T17:12:43.826Z,33.70
2022-08-03T17:15:14.906Z,33.70
2022-08-03T17:17:53.678Z,33.50
2022-08-03T17:20:29.743Z,33.40
2022-08-03T17:22:58.642Z,33.30
2022-08-03T17:25:39.739Z,33.30
2022-08-03T17:28:48.700Z,33.20
2022-08-03T17:30:54.925Z,32.90
2022-08-03T17:33:25.650Z,33.00
2022-08-03T17:35:59.210Z,32.90
2022-08-03T17:38:32.024Z,32.90
2022-08-03T17:41:10.942Z,32.90
2022-08-03T17:44:14.247Z,32.90
2022-08-03T17:46:11.147Z,32.70
2022-08-03T17:48:42.101Z,32.50
2022-08-03T17:51:17.977Z,32.50
2022-08-03T17:53:52.338Z,32.40
2022-08-03T17:56:40.679Z,32.40
2022-08-03T17:59:08.319Z,32.20
2022-08-03T18:02:09.484Z,32.10
2022-08-03T18:04:34.875Z,31.90
2022-08-03T18:07:11.958Z,31.80
2022-08-03T18:10:03.313Z,31.70
2022-08-03T18:12:17.620Z,31.60
2022-08-03T18:14:57.147Z,31.40
2022-08-03T18:17:25.422Z,31.30
2022-08-03T18:20:01.381Z,31.20
2022-08-03T18:22:31.698Z,31.10
2022-08-03T18:25:07.529Z,31.00
2022-08-03T18:27:42.887Z,31.00
2022-08-03T18:30:13.715Z,30.90
2022-08-03T18:33:00.616Z,30.90
2022-08-03T18:35:19.920Z,30.90
2022-08-03T18:37:53.282Z,30.80
2022-08-03T18:40:28.376Z,30.60
2022-08-03T18:42:59.081Z,30.50
2022-08-03T18:45:57.563Z,30.40
2022-08-03T18:48:08.433Z,30.30
2022-08-03T18:50:48.264Z,30.20
2022-08-03T18:53:21.742Z,30.30
2022-08-03T18:56:02.429Z,30.40
2022-08-03T18:58:30.573Z,30.20
2022-08-03T19:01:05.520Z,29.70
2022-08-03T19:03:42.690Z,29.30
2022-08-03T19:06:19.210Z,29.00
2022-08-03T19:08:50.251Z,28.90
2022-08-03T19:11:27.932Z,29.00
2022-08-03T19:14:00.347Z,28.90
2022-08-03T19:16:38.829Z,28.80
2022-08-03T19:19:11.137Z,28.80
2022-08-03T19:21:45.263Z,28.70
2022-08-03T19:24:17.875Z,28.60
2022-08-03T19:26:52.251Z,28.50
2022-08-03T19:29:25.271Z,28.50
2022-08-03T19:32:00.046Z,28.30
2022-08-03T19:34:33.096Z,28.40
2022-08-03T19:37:04.897Z,28.40
2022-08-03T19:39:37.701Z,28.20
2022-08-03T19:42:20.192Z,28.20
2022-08-03T19:44:47.757Z,28.20
2022-08-03T19:47:25.855Z,28.10
2022-08-03T19:50:10.097Z,28.00
2022-08-03T19:52:37.242Z,28.00
2022-08-03T19:55:12.097Z,27.90
2022-08-03T19:57:45.705Z,27.90
2022-08-03T20:00:26.486Z,28.00
2022-08-03T20:02:53.653Z,28.10
2022-08-03T20:05:24.786Z,28.10
2022-08-03T20:08:00.392Z,28.10
2022-08-03T20:10:33.481Z,28.00
2022-08-03T20:13:05.617Z,27.90
2022-08-03T20:15:41.392Z,27.70
2022-08-03T20:18:16.898Z,27.50
2022-08-03T20:20:46.524Z,27.50
2022-08-03T20:23:19.860Z,27.40
2022-08-03T20:25:58.554Z,27.40
2022-08-03T20:28:30.175Z,27.50
2022-08-03T20:33:46.443Z,27.30
2022-08-03T20:36:07.605Z,27.30
2022-08-03T20:38:43.809Z,27.10
2022-08-03T20:41:13.477Z,27.10
2022-08-03T20:43:44.804Z,27.10
2022-08-03T20:46:32.788Z,27.10
2022-08-03T20:48:51.360Z,27.00
2022-08-03T20:51:49.728Z,27.00
2022-08-03T20:54:01.018Z,27.20
2022-08-03T20:56:33.601Z,27.20
2022-08-03T20:59:05.901Z,27.20
2022-08-03T21:01:38.832Z,27.00
2022-08-03T21:04:11.887Z,27.00
2022-08-03T21:06:53.478Z,27.00
2022-08-03T21:09:21.151Z,26.90
2022-08-03T21:11:55.192Z,26.90
2022-08-03T21:13:07.090Z,27.40
2022-08-03T21:14:30.125Z,26.80
2022-08-03T21:17:06.168Z,26.80
2022-08-03T21:19:38.267Z,26.80
2022-08-03T21:22:12.930Z,26.80
2022-08-03T21:24:45.276Z,26.80
2022-08-03T21:27:16.703Z,26.70
2022-08-03T21:29:53.087Z,26.80
2022-08-03T21:32:32.368Z,26.70
2022-08-03T21:34:56.183Z,26.70
2022-08-03T21:37:27.579Z,26.60
2022-08-03T21:39:59.277Z,26.60
2022-08-03T21:42:30.528Z,26.50
2022-08-03T21:45:01.412Z,26.40
2022-08-03T21:47:34.193Z,26.40
2022-08-03T21:50:09.647Z,26.50
2022-08-03T21:52:43.495Z,26.50
2022-08-03T21:55:20.390Z,26.30
2022-08-03T21:57:53.011Z,26.40
2022-08-03T22:00:25.068Z,26.30
2022-08-03T22:02:58.352Z,26.20
2022-08-03T22:05:43.619Z,26.20
2022-08-03T22:08:03.888Z,26.20
2022-08-03T22:10:35.022Z,26.10
2022-08-03T22:13:05.959Z,26.00
2022-08-03T22:15:37.276Z,25.80
2022-08-03T22:18:08.814Z,26.00
2022-08-03T22:20:39.949Z,26.10
2022-08-03T22:23:11.829Z,26.10
2022-08-03T22:25:43.326Z,26.10
2022-08-03T22:28:15.991Z,26.00
2022-08-03T22:30:48.247Z,26.10
2022-08-03T22:33:20.075Z,26.10
2022-08-03T22:35:53.925Z,26.20
2022-08-03T22:38:26.580Z,26.00
2022-08-03T22:40:57.911Z,26.10
2022-08-03T22:43:31.146Z,26.00
2022-08-03T22:46:10.513Z,26.00
2022-08-03T22:48:40.826Z,25.90
2022-08-03T22:51:11.908Z,25.70
2022-08-03T22:53:43.200Z,25.60
2022-08-03T22:56:15.832Z,25.50
2022-08-03T22:58:47.204Z,25.60
2022-08-03T23:01:21.333Z,25.60
2022-08-03T23:04:01.010Z,25.60
2022-08-03T23:06:46.153Z,25.70
2022-08-03T23:09:20.121Z,25.70
2022-08-03T23:11:51.868Z,25.60
2022-08-03T23:14:24.083Z,25.60
2022-08-03T23:16:56.716Z,25.60
2022-08-03T23:19:30.259Z,25.60
2022-08-03T23:22:05.743Z,25.60
2022-08-03T23:24:55.134Z,25.50
2022-08-03T23:27:26.015Z,25.50
2022-08-03T23:29:58.063Z,25.50
2022-08-03T23:32:30.096Z,25.40
2022-08-03T23:35:21.076Z,25.40
2022-08-03T23:38:03.926Z,25.30
2022-08-03T23:40:45.228Z,25.30
2022-08-03T23:43:20.982Z,25.20
2022-08-03T23:45:52.783Z,25.10
2022-08-03T23:48:23.763Z,25.10
2022-08-03T23:50:58.069Z,25.10
2022-08-03T23:53:33.088Z,25.10
2022-08-03T23:56:16.543Z,25.10
2022-08-03T23:58:57.202Z,25.00
